createdAt,value
2022-09-28T00:00:55.383Z,97.10
2022-09-28T00:01:55.473Z,97.10
2022-09-28T00:02:55.411Z,97.20
2022-09-28T00:03:55.774Z,97.20
2022-09-28T00:04:55.333Z,97.20
2022-09-28T00:05:55.340Z,97.20
2022-09-28T00:06:55.312Z,97.20
2022-09-28T00:07:55.303Z,97.20
2022-09-28T00:08:55.663Z,97.20
2022-09-28T00:09:55.282Z,97.20
2022-09-28T00:10:55.269Z,97.20
2022-09-28T00:11:55.251Z,97.10
2022-09-28T00:12:55.236Z,97.00
2022-09-28T00:13:55.562Z,97.10
2022-09-28T00:14:55.211Z,97.00
2022-09-28T00:15:55.267Z,96.90
2022-09-28T00:16:55.181Z,96.90
2022-09-28T00:17:55.169Z,96.90
2022-09-28T00:18:55.571Z,96.80
2022-09-28T00:19:55.140Z,96.80
2022-09-28T00:20:55.119Z,96.69
2022-09-28T00:21:55.109Z,96.59
2022-09-28T00:22:55.102Z,96.59
2022-09-28T00:23:55.449Z,96.59
2022-09-28T00:24:55.075Z,96.59
2022-09-28T00:25:55.070Z,96.59
2022-09-28T00:26:55.047Z,96.69
2022-09-28T00:27:55.037Z,96.59
2022-09-28T00:28:55.450Z,96.59
2022-09-28T00:29:55.016Z,96.59
2022-09-28T00:30:54.996Z,96.59
2022-09-28T00:31:55.002Z,96.59
2022-09-28T00:32:54.965Z,96.59
2022-09-28T00:33:55.381Z,96.59
2022-09-28T00:34:54.939Z,96.59
2022-09-28T00:35:54.932Z,96.59
2022-09-28T00:36:54.915Z,96.59
2022-09-28T00:37:54.905Z,96.59
2022-09-28T00:38:55.231Z,96.64
2022-09-28T00:39:54.874Z,96.64
2022-09-28T00:40:54.878Z,96.73
2022-09-28T00:41:54.854Z,96.73
2022-09-28T00:42:54.835Z,96.80
2022-09-28T00:43:55.255Z,96.80
2022-09-28T00:44:54.802Z,96.80
2022-09-28T00:45:54.895Z,96.90
2022-09-28T00:46:54.773Z,96.90
2022-09-28T00:47:54.772Z,97.00
2022-09-28T00:48:55.123Z,97.00
2022-09-28T00:49:54.745Z,97.10
2022-09-28T00:50:54.731Z,97.10
2022-09-28T00:51:54.714Z,97.10
2022-09-28T00:52:54.715Z,97.20
2022-09-28T00:53:55.133Z,97.31
2022-09-28T00:54:54.680Z,97.31
2022-09-28T00:55:54.669Z,97.31
2022-09-28T00:56:54.648Z,97.41
2022-09-28T00:57:54.644Z,97.41
2022-09-28T00:58:54.627Z,97.41
2022-09-28T00:59:55.028Z,97.41
2022-09-28T01:00:54.623Z,97.41
2022-09-28T01:01:54.678Z,97.41
2022-09-28T01:02:54.575Z,97.41
2022-09-28T01:03:54.560Z,97.41
2022-09-28T01:04:54.885Z,97.41
2022-09-28T01:05:54.529Z,97.31
2022-09-28T01:06:54.515Z,97.27
2022-09-28T01:07:54.510Z,97.27
2022-09-28T01:08:54.499Z,97.27
2022-09-28T01:09:54.917Z,97.27
2022-09-28T01:10:54.476Z,97.16
2022-09-28T01:11:54.455Z,97.16
2022-09-28T01:12:54.445Z,97.06
2022-09-28T01:13:54.429Z,97.06
2022-09-28T01:14:54.775Z,96.95
2022-09-28T01:16:01.445Z,96.95
2022-09-28T01:17:02.379Z,96.85
2022-09-28T01:17:54.369Z,96.85
2022-09-28T01:18:54.359Z,96.95
2022-09-28T01:19:54.768Z,96.95
2022-09-28T01:21:01.337Z,96.85
2022-09-28T01:22:01.314Z,96.85
2022-09-28T01:23:01.320Z,96.85
2022-09-28T01:24:01.298Z,96.85
2022-09-28T01:24:54.701Z,96.85
2022-09-28T01:25:54.274Z,96.85
2022-09-28T01:26:54.253Z,96.75
2022-09-28T01:27:54.245Z,96.75
2022-09-28T01:28:54.229Z,96.75
2022-09-28T01:29:54.637Z,96.75
2022-09-28T01:30:54.203Z,96.75
2022-09-28T01:31:54.208Z,96.75
2022-09-28T01:32:54.175Z,96.75
2022-09-28T01:33:54.166Z,96.75
2022-09-28T01:34:54.574Z,96.75
2022-09-28T01:35:54.134Z,96.70
2022-09-28T01:36:54.119Z,96.70
2022-09-28T01:37:54.123Z,96.70
2022-09-28T01:38:54.095Z,96.70
2022-09-28T01:39:54.437Z,96.70
2022-09-28T01:40:54.157Z,96.70
2022-09-28T01:41:54.054Z,96.70
2022-09-28T01:42:54.036Z,96.70
2022-09-28T01:43:54.031Z,96.70
2022-09-28T01:44:54.451Z,96.81
2022-09-28T01:45:54.039Z,96.81
2022-09-28T01:46:53.994Z,96.81
2022-09-28T01:47:53.982Z,96.91
2022-09-28T01:48:53.964Z,96.91
2022-09-28T01:49:54.362Z,96.91
2022-09-28T01:50:53.951Z,96.91
2022-09-28T01:51:53.931Z,96.91
2022-09-28T01:52:53.910Z,96.91
2022-09-28T01:53:53.915Z,96.91
2022-09-28T01:54:54.253Z,96.91
2022-09-28T01:55:53.871Z,96.91
2022-09-28T01:56:53.860Z,96.91
2022-09-28T01:57:53.846Z,96.91
2022-09-28T01:58:53.836Z,97.02
2022-09-28T01:59:54.249Z,97.02
2022-09-28T02:00:53.841Z,97.12
2022-09-28T02:01:53.819Z,97.02
2022-09-28T02:02:53.790Z,97.12
2022-09-28T02:03:53.771Z,97.12
2022-09-28T02:04:54.112Z,97.12
2022-09-28T02:05:53.746Z,97.12
2022-09-28T02:06:53.726Z,97.12
2022-09-28T02:07:53.723Z,97.12
2022-09-28T02:08:53.699Z,97.12
2022-09-28T02:09:54.127Z,97.22
2022-09-28T02:10:53.682Z,97.22
2022-09-28T02:11:53.669Z,97.22
2022-09-28T02:12:53.661Z,97.32
2022-09-28T02:13:53.645Z,97.32
2022-09-28T02:14:53.988Z,97.32
2022-09-28T02:15:53.651Z,97.32
2022-09-28T02:16:53.596Z,97.32
2022-09-28T02:17:53.598Z,97.42
2022-09-28T02:18:53.579Z,97.42
2022-09-28T02:19:53.878Z,97.42
2022-09-28T02:20:53.545Z,97.42
2022-09-28T02:21:53.533Z,97.42
2022-09-28T02:22:53.516Z,97.42
2022-09-28T02:23:53.517Z,97.42
2022-09-28T02:24:53.924Z,97.42
2022-09-28T02:25:53.485Z,97.42
2022-09-28T02:26:53.463Z,97.42
2022-09-28T02:27:53.456Z,97.42
2022-09-28T02:28:53.431Z,97.42
2022-09-28T02:29:53.776Z,97.42
2022-09-28T02:30:53.405Z,97.42
2022-09-28T02:31:53.447Z,97.42
2022-09-28T02:32:53.388Z,97.42
2022-09-28T02:33:53.386Z,97.42
2022-09-28T02:34:53.784Z,97.32
2022-09-28T02:35:53.351Z,97.32
2022-09-28T02:36:53.331Z,97.32
2022-09-28T02:37:53.329Z,97.32
2022-09-28T02:38:53.325Z,97.32
2022-09-28T02:39:53.742Z,97.28
2022-09-28T02:40:53.341Z,97.17
2022-09-28T02:41:53.278Z,97.17
2022-09-28T02:42:53.272Z,97.17
2022-09-28T02:43:53.260Z,97.07
2022-09-28T02:44:53.602Z,97.07
2022-09-28T02:45:53.256Z,97.07
2022-09-28T02:46:53.209Z,96.97
2022-09-28T02:47:53.189Z,96.87
2022-09-28T02:49:10.670Z,96.87
2022-09-28T02:49:54.599Z,96.77
2022-09-28T02:50:53.164Z,96.77
2022-09-28T02:51:53.149Z,96.66
2022-09-28T02:52:53.136Z,96.66
2022-09-28T02:53:53.116Z,96.56
2022-09-28T02:54:53.098Z,96.51
2022-09-28T02:55:53.507Z,96.41
2022-09-28T02:56:53.069Z,96.31
2022-09-28T02:57:53.063Z,96.10
2022-09-28T02:58:53.044Z,96.10
2022-09-28T02:59:53.056Z,96.00
2022-09-28T03:00:53.425Z,95.90
2022-09-28T03:01:53.058Z,95.90
2022-09-28T03:02:52.995Z,95.79
2022-09-28T03:03:52.988Z,95.69
2022-09-28T03:04:52.975Z,95.69
2022-09-28T03:05:53.376Z,95.69
2022-09-28T03:06:52.947Z,95.59
2022-09-28T03:07:52.936Z,95.59
2022-09-28T03:08:52.919Z,95.44
2022-09-28T03:09:52.913Z,95.44
2022-09-28T03:10:53.263Z,95.34
2022-09-28T03:11:52.885Z,95.24
2022-09-28T03:12:52.875Z,95.24
2022-09-28T03:13:52.855Z,95.24
2022-09-28T03:14:52.841Z,95.24
2022-09-28T03:15:53.163Z,95.24
2022-09-28T03:16:52.814Z,95.24
2022-09-28T03:17:52.801Z,95.24
2022-09-28T03:18:52.791Z,95.24
2022-09-28T03:19:52.772Z,95.24
2022-09-28T03:20:53.204Z,95.24
2022-09-28T03:21:52.751Z,95.34
2022-09-28T03:23:19.695Z,95.34
2022-09-28T03:23:53.730Z,95.34
2022-09-28T03:24:52.712Z,95.34
2022-09-28T03:25:53.099Z,95.34
2022-09-28T03:26:52.681Z,95.34
2022-09-28T03:27:52.682Z,95.44
2022-09-28T03:28:52.662Z,95.44
2022-09-28T03:29:52.649Z,95.34
2022-09-28T03:30:52.959Z,95.34
2022-09-28T03:31:52.684Z,95.44
2022-09-28T03:32:52.612Z,95.44
2022-09-28T03:33:52.597Z,95.44
2022-09-28T03:34:52.578Z,95.54
2022-09-28T03:35:53.000Z,95.54
2022-09-28T03:36:52.565Z,95.44
2022-09-28T03:37:52.560Z,95.54
2022-09-28T03:38:52.529Z,95.54
2022-09-28T03:39:52.514Z,95.54
2022-09-28T03:40:52.897Z,95.65
2022-09-28T03:41:52.484Z,95.65
2022-09-28T03:42:52.475Z,95.54
2022-09-28T03:43:52.464Z,95.44
2022-09-28T03:44:52.467Z,95.34
2022-09-28T03:45:52.875Z,95.24
2022-09-28T03:46:52.428Z,95.14
2022-09-28T03:47:52.413Z,94.99
2022-09-28T03:48:52.402Z,94.89
2022-09-28T03:49:52.383Z,94.78
2022-09-28T03:50:52.743Z,94.68
2022-09-28T03:51:52.353Z,94.68
2022-09-28T03:52:52.356Z,94.68
2022-09-28T03:53:52.324Z,94.68
2022-09-28T03:54:52.313Z,94.58
2022-09-28T03:55:52.725Z,94.58
2022-09-28T03:56:52.291Z,94.58
2022-09-28T03:57:59.274Z,94.48
2022-09-28T03:58:59.271Z,94.58
2022-09-28T03:59:59.238Z,94.58
2022-09-28T04:00:59.564Z,94.68
2022-09-28T04:01:59.263Z,94.68
2022-09-28T04:02:52.215Z,94.78
2022-09-28T04:03:52.201Z,94.89
2022-09-28T04:04:52.194Z,94.89
2022-09-28T04:05:52.177Z,94.89
2022-09-28T04:06:52.559Z,94.99
2022-09-28T04:07:52.153Z,94.99
2022-09-28T04:08:52.140Z,94.99
2022-09-28T04:09:52.120Z,95.09
2022-09-28T04:10:52.112Z,95.09
2022-09-28T04:12:03.324Z,95.09
2022-09-28T04:12:53.090Z,95.20
2022-09-28T04:13:53.571Z,95.20
2022-09-28T04:14:52.070Z,95.20
2022-09-28T04:15:52.052Z,95.29
2022-09-28T04:16:52.515Z,95.29
2022-09-28T04:17:52.018Z,95.40
2022-09-28T04:18:52.016Z,95.40
2022-09-28T04:19:51.987Z,95.40
2022-09-28T04:20:51.988Z,95.50
2022-09-28T04:21:52.346Z,95.50
2022-09-28T04:22:51.957Z,95.50
2022-09-28T04:23:51.945Z,95.50
2022-09-28T04:24:51.936Z,95.50
2022-09-28T04:25:51.918Z,95.50
2022-09-28T04:26:52.344Z,95.50
2022-09-28T04:27:51.899Z,95.50
2022-09-28T04:28:51.888Z,95.61
2022-09-28T04:29:51.866Z,95.61
2022-09-28T04:30:51.858Z,95.61
2022-09-28T04:31:52.260Z,95.50
2022-09-28T04:32:51.836Z,95.40
2022-09-28T04:33:51.804Z,95.40
2022-09-28T04:34:51.809Z,95.29
2022-09-28T04:35:51.785Z,95.29
2022-09-28T04:36:51.812Z,95.29
2022-09-28T04:37:51.769Z,95.40
2022-09-28T04:38:53.427Z,95.40
2022-09-28T04:39:51.737Z,95.40
2022-09-28T04:40:51.785Z,95.29
2022-09-28T04:41:52.024Z,95.29
2022-09-28T04:42:51.707Z,95.40
2022-09-28T04:43:51.682Z,95.40
2022-09-28T04:44:51.675Z,95.50
2022-09-28T04:45:51.705Z,95.40
2022-09-28T04:46:51.650Z,95.40
2022-09-28T04:47:52.063Z,95.29
2022-09-28T04:48:51.629Z,95.09
2022-09-28T04:49:51.619Z,94.99
2022-09-28T04:50:51.601Z,94.48
2022-09-28T04:51:51.580Z,94.52
2022-09-28T04:52:51.907Z,94.21
2022-09-28T04:53:51.551Z,94.21
2022-09-28T04:54:51.546Z,94.11
2022-09-28T04:55:51.528Z,94.21
2022-09-28T04:56:51.528Z,94.36
2022-09-28T04:57:51.939Z,94.67
2022-09-28T04:58:52.837Z,94.87
2022-09-28T04:59:51.491Z,94.87
2022-09-28T05:00:51.500Z,95.12
2022-09-28T05:01:51.493Z,95.23
2022-09-28T05:02:51.798Z,95.23
2022-09-28T05:03:51.438Z,95.43
2022-09-28T05:04:51.415Z,95.64
2022-09-28T05:05:51.405Z,95.89
2022-09-28T05:06:51.387Z,95.98
2022-09-28T05:07:51.816Z,96.09
2022-09-28T05:08:51.366Z,96.09
2022-09-28T05:09:51.356Z,96.19
2022-09-28T05:10:51.325Z,96.30
2022-09-28T05:11:51.322Z,96.40
2022-09-28T05:12:51.626Z,96.40
2022-09-28T05:13:51.297Z,96.40
2022-09-28T05:14:51.285Z,96.50
2022-09-28T05:15:56.163Z,96.50
2022-09-28T05:16:52.343Z,96.50
2022-09-28T05:17:51.275Z,96.60
2022-09-28T05:18:51.248Z,96.60
2022-09-28T05:19:51.223Z,96.70
2022-09-28T05:20:51.213Z,96.70
2022-09-28T05:21:51.657Z,96.70
2022-09-28T05:22:51.493Z,96.70
2022-09-28T05:23:51.164Z,96.70
2022-09-28T05:24:51.173Z,96.81
2022-09-28T05:25:51.143Z,96.81
2022-09-28T05:26:51.131Z,96.81
2022-09-28T05:27:51.423Z,96.91
2022-09-28T05:28:51.109Z,96.91
2022-09-28T05:29:51.095Z,96.91
2022-09-28T05:30:51.080Z,96.91
2022-09-28T05:31:51.109Z,96.91
2022-09-28T05:32:51.444Z,96.91
2022-09-28T05:33:51.047Z,97.02
2022-09-28T05:34:51.030Z,97.02
2022-09-28T05:35:53.794Z,97.12
2022-09-28T05:36:51.000Z,97.12
2022-09-28T05:37:51.411Z,97.12
2022-09-28T05:38:50.974Z,97.12
2022-09-28T05:39:50.961Z,97.12
2022-09-28T05:40:50.999Z,97.12
2022-09-28T05:41:50.951Z,97.12
2022-09-28T05:42:51.400Z,97.12
2022-09-28T05:43:50.907Z,97.12
2022-09-28T05:44:50.899Z,97.22
2022-09-28T05:45:55.353Z,97.22
2022-09-28T05:46:51.881Z,97.22
2022-09-28T05:47:51.268Z,97.32
2022-09-28T05:48:50.852Z,97.22
2022-09-28T05:49:50.837Z,97.22
2022-09-28T05:50:50.829Z,97.22
2022-09-28T05:51:50.817Z,97.22
2022-09-28T05:52:51.242Z,97.22
2022-09-28T05:53:50.768Z,97.22
2022-09-28T05:54:50.765Z,97.16
2022-09-28T05:55:50.746Z,97.16
2022-09-28T05:56:50.737Z,97.16
2022-09-28T05:57:51.483Z,97.27
2022-09-28T05:58:50.715Z,97.27
2022-09-28T05:59:50.697Z,97.27
2022-09-28T06:00:50.686Z,97.27
2022-09-28T06:01:50.679Z,97.27
2022-09-28T06:02:51.172Z,97.32
2022-09-28T06:03:50.644Z,97.32
2022-09-28T06:04:50.635Z,97.32
2022-09-28T06:05:50.614Z,97.42
2022-09-28T06:06:50.611Z,97.42
2022-09-28T06:07:51.025Z,97.42
2022-09-28T06:08:50.583Z,97.42
2022-09-28T06:09:50.579Z,97.53
2022-09-28T06:10:50.566Z,97.53
2022-09-28T06:11:50.542Z,97.53
2022-09-28T06:12:50.564Z,97.53
2022-09-28T06:13:50.523Z,97.53
2022-09-28T06:14:50.500Z,97.42
2022-09-28T06:15:50.481Z,97.42
2022-09-28T06:16:50.539Z,97.32
2022-09-28T06:17:50.894Z,97.32
2022-09-28T06:18:50.440Z,97.42
2022-09-28T06:19:50.463Z,97.42
2022-09-28T06:20:50.422Z,97.42
2022-09-28T06:21:50.420Z,97.42
2022-09-28T06:22:50.831Z,97.42
2022-09-28T06:23:50.378Z,97.42
2022-09-28T06:24:50.378Z,97.42
2022-09-28T06:25:50.372Z,97.42
2022-09-28T06:26:50.354Z,97.42
2022-09-28T06:27:50.345Z,97.42
2022-09-28T06:28:50.733Z,97.42
2022-09-28T06:29:50.298Z,97.38
2022-09-28T06:30:50.333Z,97.38
2022-09-28T06:31:57.261Z,97.38
2022-09-28T06:32:57.587Z,97.38
2022-09-28T06:33:57.254Z,97.38
2022-09-28T06:34:57.261Z,97.38
2022-09-28T06:35:57.229Z,97.38
2022-09-28T06:36:57.216Z,97.38
2022-09-28T06:37:57.201Z,97.38
2022-09-28T06:38:50.622Z,97.38
2022-09-28T06:39:57.175Z,97.38
2022-09-28T06:40:50.315Z,97.38
2022-09-28T06:41:50.146Z,97.38
2022-09-28T06:42:50.143Z,97.38
2022-09-28T06:43:50.149Z,97.38
2022-09-28T06:44:50.117Z,97.38
2022-09-28T06:45:50.164Z,97.28
2022-09-28T06:46:50.085Z,97.28
2022-09-28T06:47:50.074Z,97.28
2022-09-28T06:48:50.270Z,97.17
2022-09-28T06:49:50.052Z,97.17
2022-09-28T06:50:50.038Z,97.17
2022-09-28T06:51:50.025Z,97.17
2022-09-28T06:52:50.003Z,97.17
2022-09-28T06:53:50.034Z,97.17
2022-09-28T06:54:49.987Z,97.07
2022-09-28T06:55:49.962Z,97.07
2022-09-28T06:56:49.959Z,97.03
2022-09-28T06:57:49.942Z,97.03
2022-09-28T06:58:49.952Z,97.03
2022-09-28T06:59:49.914Z,96.92
2022-09-28T07:00:49.951Z,96.92
2022-09-28T07:01:49.890Z,96.92
2022-09-28T07:02:49.880Z,96.92
2022-09-28T07:03:54.859Z,96.92
2022-09-28T07:04:50.878Z,96.82
2022-09-28T07:05:49.839Z,96.82
2022-09-28T07:06:49.826Z,96.72
2022-09-28T07:07:49.821Z,96.72
2022-09-28T07:08:56.582Z,96.72
2022-09-28T07:09:54.642Z,96.72
2022-09-28T07:10:49.799Z,96.57
2022-09-28T07:11:49.760Z,96.57
2022-09-28T07:12:49.748Z,96.47
2022-09-28T07:13:51.406Z,96.37
2022-09-28T07:14:49.950Z,96.26
2022-09-28T07:15:49.701Z,96.26
2022-09-28T07:17:09.224Z,96.16
2022-09-28T07:17:58.961Z,96.01
2022-09-28T07:18:51.094Z,95.91
2022-09-28T07:19:49.646Z,95.91
2022-09-28T07:20:54.257Z,95.81
2022-09-28T07:22:00.974Z,95.70
2022-09-28T07:22:50.616Z,95.70
2022-09-28T07:23:53.858Z,95.61
2022-09-28T07:24:49.998Z,95.61
2022-09-28T07:25:49.580Z,95.70
2022-09-28T07:26:49.564Z,95.70
2022-09-28T07:27:49.556Z,95.70
2022-09-28T07:28:49.543Z,95.61
2022-09-28T07:29:49.913Z,95.50
2022-09-28T07:30:49.555Z,95.40
2022-09-28T07:31:49.492Z,95.29
2022-09-28T07:32:49.483Z,95.29
2022-09-28T07:33:49.483Z,95.29
2022-09-28T07:34:50.241Z,95.29
2022-09-28T07:35:49.455Z,95.20
2022-09-28T07:36:49.442Z,95.20
2022-09-28T07:37:49.424Z,95.05
2022-09-28T07:38:49.416Z,95.05
2022-09-28T07:39:49.815Z,95.05
2022-09-28T07:40:49.413Z,95.05
2022-09-28T07:41:49.378Z,95.05
2022-09-28T07:42:49.363Z,94.84
2022-09-28T07:43:49.351Z,94.74
2022-09-28T07:44:49.718Z,94.54
2022-09-28T07:45:49.401Z,94.64
2022-09-28T07:46:49.311Z,94.74
2022-09-28T07:47:49.328Z,94.54
2022-09-28T07:48:49.315Z,94.37
2022-09-28T07:49:49.712Z,94.33
2022-09-28T07:50:49.261Z,94.43
2022-09-28T07:51:49.259Z,94.64
2022-09-28T07:52:49.241Z,94.74
2022-09-28T07:53:49.240Z,94.74
2022-09-28T07:54:49.697Z,94.74
2022-09-28T07:55:49.218Z,94.64
2022-09-28T07:56:49.193Z,94.54
2022-09-28T07:57:49.177Z,94.54
2022-09-28T07:58:49.175Z,94.33
2022-09-28T07:59:49.473Z,94.23
2022-09-28T08:00:49.222Z,93.98
2022-09-28T08:01:49.131Z,93.92
2022-09-28T08:02:49.117Z,93.88
2022-09-28T08:03:49.109Z,93.67
2022-09-28T08:04:49.396Z,93.57
2022-09-28T08:05:49.076Z,93.37
2022-09-28T08:06:49.059Z,93.26
2022-09-28T08:07:49.048Z,93.16
2022-09-28T08:08:49.038Z,93.22
2022-09-28T08:09:49.339Z,92.96
2022-09-28T08:10:49.024Z,92.50
2022-09-28T08:11:49.001Z,92.50
2022-09-28T08:12:48.975Z,92.40
2022-09-28T08:13:48.977Z,92.15
2022-09-28T08:14:49.265Z,92.46
2022-09-28T08:15:48.954Z,92.05
2022-09-28T08:16:51.994Z,92.25
2022-09-28T08:17:49.067Z,92.36
2022-09-28T08:18:48.904Z,92.36
2022-09-28T08:19:49.204Z,92.42
2022-09-28T08:20:51.640Z,92.21
2022-09-28T08:21:48.873Z,92.01
2022-09-28T08:22:48.853Z,91.39
2022-09-28T08:23:48.846Z,91.25
2022-09-28T08:24:49.179Z,91.05
2022-09-28T08:25:48.833Z,91.00
2022-09-28T08:26:48.802Z,90.80
2022-09-28T08:27:48.791Z,90.80
2022-09-28T08:28:48.776Z,90.90
2022-09-28T08:29:49.184Z,90.66
2022-09-28T08:30:48.764Z,90.45
2022-09-28T08:31:48.741Z,90.55
2022-09-28T08:32:48.721Z,89.94
2022-09-28T08:33:48.709Z,89.73
2022-09-28T08:34:49.132Z,89.69
2022-09-28T08:35:48.681Z,89.49
2022-09-28T08:36:48.669Z,89.39
2022-09-28T08:37:52.335Z,89.69
2022-09-28T08:38:49.640Z,89.59
2022-09-28T08:39:49.033Z,89.08
2022-09-28T08:40:48.774Z,89.39
2022-09-28T08:41:48.607Z,89.69
2022-09-28T08:42:48.582Z,89.65
2022-09-28T08:43:48.569Z,89.25
2022-09-28T08:44:48.999Z,88.73
2022-09-28T08:45:48.572Z,88.79
2022-09-28T08:46:48.532Z,87.88
2022-09-28T08:47:48.521Z,87.32
2022-09-28T08:49:01.100Z,87.32
2022-09-28T08:49:49.831Z,87.18
2022-09-28T08:50:48.493Z,86.98
2022-09-28T08:51:48.467Z,86.06
2022-09-28T08:52:48.447Z,86.37
2022-09-28T08:53:48.437Z,86.02
2022-09-28T08:54:48.425Z,85.41
2022-09-28T08:55:48.736Z,85.00
2022-09-28T08:56:48.417Z,84.64
2022-09-28T08:57:48.397Z,85.05
2022-09-28T08:58:48.387Z,85.86
2022-09-28T08:59:48.369Z,85.41
2022-09-28T09:00:48.957Z,85.31
2022-09-28T09:01:48.336Z,85.37
2022-09-28T09:02:48.391Z,84.45
2022-09-28T09:03:48.321Z,84.76
2022-09-28T09:04:48.745Z,84.25
2022-09-28T09:05:48.285Z,84.15
2022-09-28T09:06:48.274Z,83.23
2022-09-28T09:07:48.257Z,83.70
2022-09-28T09:08:48.245Z,82.59
2022-09-28T09:09:55.621Z,82.79
2022-09-28T09:10:56.208Z,82.99
2022-09-28T09:11:55.195Z,82.79
2022-09-28T09:12:55.183Z,82.68
2022-09-28T09:13:55.178Z,82.79
2022-09-28T09:14:56.195Z,82.18
2022-09-28T09:15:55.531Z,82.21
2022-09-28T09:16:57.489Z,82.15
2022-09-28T09:17:55.136Z,83.01
2022-09-28T09:18:48.114Z,83.72
2022-09-28T09:19:48.096Z,84.50
2022-09-28T09:20:48.725Z,84.59
2022-09-28T09:21:48.076Z,83.62
2022-09-28T09:22:48.483Z,83.78
2022-09-28T09:23:48.077Z,83.78
2022-09-28T09:24:48.028Z,83.58
2022-09-28T09:25:48.401Z,83.03
2022-09-28T09:26:48.008Z,82.73
2022-09-28T09:27:47.995Z,82.12
2022-09-28T09:28:47.991Z,81.95
2022-09-28T09:29:47.983Z,82.19
2022-09-28T09:30:48.013Z,82.76
2022-09-28T09:31:47.935Z,82.87
2022-09-28T09:32:47.928Z,82.82
2022-09-28T09:33:47.950Z,82.62
2022-09-28T09:34:47.893Z,82.79
2022-09-28T09:35:48.252Z,81.98
2022-09-28T09:36:47.894Z,81.84
2022-09-28T09:37:47.864Z,81.53
2022-09-28T09:38:47.850Z,81.53
2022-09-28T09:39:47.842Z,80.51
2022-09-28T09:40:48.283Z,81.12
2022-09-28T09:41:47.810Z,81.43
2022-09-28T09:42:47.793Z,81.37
2022-09-28T09:43:47.794Z,82.07
2022-09-28T09:44:47.776Z,82.79
2022-09-28T09:45:48.154Z,81.26
2022-09-28T09:46:47.738Z,80.45
2022-09-28T09:47:47.733Z,80.04
2022-09-28T09:48:47.723Z,81.26
2022-09-28T09:49:47.791Z,80.82
2022-09-28T09:50:48.128Z,80.59
2022-09-28T09:51:47.684Z,81.04
2022-09-28T09:52:47.660Z,82.52
2022-09-28T09:53:47.652Z,82.32
2022-09-28T09:54:47.638Z,81.30
2022-09-28T09:55:47.975Z,80.96
2022-09-28T09:56:47.614Z,80.79
2022-09-28T09:57:47.602Z,82.15
2022-09-28T09:58:47.595Z,81.65
2022-09-28T09:59:47.595Z,81.74
2022-09-28T10:00:47.995Z,82.15
2022-09-28T10:01:47.634Z,82.18
2022-09-28T10:02:47.555Z,79.43
2022-09-28T10:03:47.521Z,79.91
2022-09-28T10:04:47.513Z,81.30
2022-09-28T10:05:47.829Z,81.57
2022-09-28T10:06:47.480Z,81.23
2022-09-28T10:07:47.480Z,79.97
2022-09-28T10:08:47.449Z,79.56
2022-09-28T10:09:47.442Z,78.28
2022-09-28T10:10:47.781Z,80.35
2022-09-28T10:11:47.426Z,81.33
2022-09-28T10:12:49.425Z,79.70
2022-09-28T10:13:47.388Z,79.70
2022-09-28T10:14:47.378Z,78.99
2022-09-28T10:15:47.795Z,77.67
2022-09-28T10:16:47.409Z,78.89
2022-09-28T10:17:47.343Z,77.97
2022-09-28T10:18:47.319Z,78.55
2022-09-28T10:19:47.307Z,78.41
2022-09-28T10:20:47.676Z,77.29
2022-09-28T10:21:47.284Z,76.95
2022-09-28T10:22:47.271Z,76.95
2022-09-28T10:23:47.299Z,76.40
2022-09-28T10:24:47.251Z,76.27
2022-09-28T10:25:47.237Z,74.41
2022-09-28T10:26:47.647Z,74.34
2022-09-28T10:27:47.209Z,73.53
2022-09-28T10:28:47.187Z,72.14
2022-09-28T10:29:47.177Z,74.82
2022-09-28T10:30:47.237Z,74.62
2022-09-28T10:31:47.176Z,75.12
2022-09-28T10:32:47.127Z,76.14
2022-09-28T10:33:47.125Z,75.49
2022-09-28T10:34:50.284Z,73.06
2022-09-28T10:35:47.096Z,74.31
2022-09-28T10:36:47.515Z,73.22
2022-09-28T10:37:47.075Z,73.02
2022-09-28T10:38:47.074Z,75.60
2022-09-28T10:39:47.044Z,75.26
2022-09-28T10:40:47.378Z,74.71
2022-09-28T10:41:47.025Z,73.19
2022-09-28T10:42:47.006Z,72.58
2022-09-28T10:43:50.161Z,72.41
2022-09-28T10:44:47.976Z,74.38
2022-09-28T10:45:47.482Z,74.82
2022-09-28T10:46:46.958Z,75.70
2022-09-28T10:47:46.947Z,75.60
2022-09-28T10:48:46.923Z,76.45
2022-09-28T10:49:47.392Z,76.65
2022-09-28T10:50:46.894Z,75.12
2022-09-28T10:51:47.325Z,74.45
2022-09-28T10:52:46.864Z,75.46
2022-09-28T10:53:46.874Z,76.07
2022-09-28T10:54:46.898Z,74.65
2022-09-28T10:55:46.834Z,75.23
2022-09-28T10:56:47.134Z,75.09
2022-09-28T10:57:46.803Z,74.68
2022-09-28T10:58:46.793Z,74.95
2022-09-28T10:59:46.788Z,74.82
2022-09-28T11:00:46.763Z,73.97
2022-09-28T11:01:47.208Z,72.55
2022-09-28T11:02:46.854Z,73.16
2022-09-28T11:03:46.732Z,73.93
2022-09-28T11:04:46.711Z,72.61
2022-09-28T11:05:46.699Z,72.78
2022-09-28T11:06:47.163Z,72.34
2022-09-28T11:07:46.680Z,71.53
2022-09-28T11:08:46.662Z,71.30
2022-09-28T11:09:48.464Z,71.00
2022-09-28T11:10:46.632Z,70.55
2022-09-28T11:11:47.021Z,72.21
2022-09-28T11:12:46.621Z,72.58
2022-09-28T11:13:46.628Z,72.99
2022-09-28T11:14:46.584Z,71.77
2022-09-28T11:15:46.571Z,71.97
2022-09-28T11:16:46.937Z,71.88
2022-09-28T11:17:46.549Z,71.97
2022-09-28T11:18:46.526Z,72.34
2022-09-28T11:19:46.532Z,72.85
2022-09-28T11:20:46.523Z,72.41
2022-09-28T11:21:46.921Z,71.50
2022-09-28T11:22:47.133Z,70.32
2022-09-28T11:23:46.469Z,72.17
2022-09-28T11:24:46.450Z,72.99
2022-09-28T11:25:46.439Z,73.29
2022-09-28T11:26:46.730Z,72.04
2022-09-28T11:27:46.411Z,71.80
2022-09-28T11:28:46.421Z,71.47
2022-09-28T11:29:46.379Z,69.34
2022-09-28T11:30:46.449Z,69.98
2022-09-28T11:31:46.787Z,70.18
2022-09-28T11:32:46.360Z,70.15
2022-09-28T11:33:46.327Z,69.24
2022-09-28T11:34:58.057Z,69.20
2022-09-28T11:35:47.308Z,69.10
2022-09-28T11:36:46.659Z,69.10
2022-09-28T11:37:46.305Z,67.21
2022-09-28T11:38:46.291Z,68.56
2022-09-28T11:39:46.262Z,69.47
2022-09-28T11:40:46.292Z,69.57
2022-09-28T11:41:46.239Z,67.34
2022-09-28T11:42:46.618Z,68.29
2022-09-28T11:43:46.203Z,67.98
2022-09-28T11:44:46.198Z,68.62
2022-09-28T11:45:46.262Z,69.60
2022-09-28T11:46:46.492Z,70.52
2022-09-28T11:47:46.295Z,70.08
2022-09-28T11:48:53.124Z,68.93
2022-09-28T11:49:53.111Z,68.56
2022-09-28T11:50:53.171Z,69.20
2022-09-28T11:51:53.455Z,69.20
2022-09-28T11:52:53.070Z,70.08
2022-09-28T11:53:53.051Z,68.56
2022-09-28T11:54:53.062Z,69.51
2022-09-28T11:55:53.043Z,69.40
2022-09-28T11:56:46.033Z,69.57
2022-09-28T11:57:46.429Z,68.87
2022-09-28T11:58:46.010Z,68.56
2022-09-28T11:59:46.040Z,68.43
2022-09-28T12:00:45.981Z,68.32
2022-09-28T12:01:45.962Z,69.20
2022-09-28T12:02:46.594Z,69.27
2022-09-28T12:03:46.035Z,68.06
2022-09-28T12:04:45.923Z,67.85
2022-09-28T12:05:45.932Z,66.00
2022-09-28T12:06:45.951Z,66.74
2022-09-28T12:07:46.319Z,67.14
2022-09-28T12:08:45.874Z,66.44
2022-09-28T12:09:45.850Z,66.03
2022-09-28T12:10:45.860Z,65.15
2022-09-28T12:11:45.827Z,66.50
2022-09-28T12:12:46.150Z,68.23
2022-09-28T12:13:45.804Z,67.68
2022-09-28T12:14:45.792Z,67.18
2022-09-28T12:16:07.767Z,66.13
2022-09-28T12:17:04.338Z,65.53
2022-09-28T12:17:46.827Z,64.51
2022-09-28T12:18:45.751Z,65.32
2022-09-28T12:19:45.742Z,64.89
2022-09-28T12:20:45.726Z,64.89
2022-09-28T12:21:45.709Z,63.98
2022-09-28T12:22:46.150Z,63.57
2022-09-28T12:23:45.670Z,63.98
2022-09-28T12:24:45.669Z,64.48
2022-09-28T12:25:45.660Z,64.58
2022-09-28T12:26:45.652Z,64.61
2022-09-28T12:27:45.928Z,64.61
2022-09-28T12:28:45.618Z,64.92
2022-09-28T12:29:45.599Z,64.51
2022-09-28T12:30:45.642Z,64.69
2022-09-28T12:31:45.568Z,65.12
2022-09-28T12:32:45.879Z,64.64
2022-09-28T12:33:45.545Z,64.98
2022-09-28T12:34:45.541Z,65.99
2022-09-28T12:35:45.519Z,65.18
2022-09-28T12:36:45.537Z,64.95
2022-09-28T12:37:45.974Z,65.36
2022-09-28T12:38:50.829Z,63.90
2022-09-28T12:39:57.139Z,64.14
2022-09-28T12:40:46.475Z,64.34
2022-09-28T12:41:45.520Z,65.56
2022-09-28T12:42:45.801Z,65.36
2022-09-28T12:43:45.411Z,64.14
2022-09-28T12:44:45.395Z,64.98
2022-09-28T12:46:09.862Z,65.18
2022-09-28T12:46:46.744Z,65.08
2022-09-28T12:47:45.366Z,65.92
2022-09-28T12:48:52.918Z,66.53
2022-09-28T12:50:55.941Z,66.23
2022-09-28T12:51:46.317Z,66.83
2022-09-28T12:52:45.871Z,66.91
2022-09-28T12:53:45.278Z,66.67